sensor_id;sensor_type;location;lat;lon;timestamp;pressure;altitude;pressure_sealevel;temperature;humidity
9415;BME280;4746;35.664;139.738;2023-05-25T00:01:45;101040.34;;;24.67;36.65
9415;BME280;4746;35.664;139.738;2023-05-25T00:04:14;101038.34;;;24.73;37.39
9415;BME280;4746;35.664;139.738;2023-05-25T00:06:43;101026.63;;;24.83;36.95
9415;BME280;4746;35.664;139.738;2023-05-25T00:09:13;101027.97;;;24.93;36.94
9415;BME280;4746;35.664;139.738;2023-05-25T00:11:40;101039.50;;;25.12;36.89
9415;BME280;4746;35.664;139.738;2023-05-25T00:14:08;101040.47;;;25.31;36.58
9415;BME280;4746;35.664;139.738;2023-05-25T00:16:35;101044.97;;;25.49;36.08
9415;BME280;4746;35.664;139.738;2023-05-25T00:19:06;101037.16;;;25.69;35.82
9415;BME280;4746;35.664;139.738;2023-05-25T00:21:36;101044.03;;;25.93;35.50
9415;BME280;4746;35.664;139.738;2023-05-25T00:24:07;101040.56;;;26.12;35.27
9415;BME280;4746;35.664;139.738;2023-05-25T00:26:35;101037.41;;;26.24;35.13
9415;BME280;4746;35.664;139.738;2023-05-25T00:29:06;101036.69;;;26.40;35.06
9415;BME280;4746;35.664;139.738;2023-05-25T00:31:33;101033.53;;;26.52;34.96
9415;BME280;4746;35.664;139.738;2023-05-25T00:34:02;101040.88;;;26.64;34.93
9415;BME280;4746;35.664;139.738;2023-05-25T00:36:29;101034.91;;;26.79;34.34
9415;BME280;4746;35.664;139.738;2023-05-25T00:38:57;101052.75;;;26.91;34.33
9415;BME280;4746;35.664;139.738;2023-05-25T00:41:27;101053.22;;;27.00;33.96
9415;BME280;4746;35.664;139.738;2023-05-25T00:43:54;101050.22;;;27.08;33.64
9415;BME280;4746;35.664;139.738;2023-05-25T00:46:23;101052.28;;;27.20;33.30
9415;BME280;4746;35.664;139.738;2023-05-25T00:48:54;101050.59;;;27.36;33.36
9415;BME280;4746;35.664;139.738;2023-05-25T00:51:22;101055.28;;;27.47;32.89
9415;BME280;4746;35.664;139.738;2023-05-25T00:53:52;101068.50;;;27.64;33.25
9415;BME280;4746;35.664;139.738;2023-05-25T00:56:29;101055.44;;;27.80;32.74
9415;BME280;4746;35.664;139.738;2023-05-25T00:59:02;101067.06;;;27.93;32.54
9415;BME280;4746;35.664;139.738;2023-05-25T01:01:34;101060.50;;;28.01;32.34
9415;BME280;4746;35.664;139.738;2023-05-25T01:04:14;101073.03;;;28.13;32.53
9415;BME280;4746;35.664;139.738;2023-05-25T01:06:47;101072.75;;;28.19;32.51
9415;BME280;4746;35.664;139.738;2023-05-25T01:09:18;101076.25;;;28.36;31.94
9415;BME280;4746;35.664;139.738;2023-05-25T01:11:52;101068.13;;;28.56;31.84
9415;BME280;4746;35.664;139.738;2023-05-25T01:14:23;101068.88;;;28.75;31.86
9415;BME280;4746;35.664;139.738;2023-05-25T01:16:53;101072.25;;;28.94;31.16
9415;BME280;4746;35.664;139.738;2023-05-25T01:19:25;101078.59;;;29.07;31.62
9415;BME280;4746;35.664;139.738;2023-05-25T01:22:07;101074.13;;;29.07;31.44
9415;BME280;4746;35.664;139.738;2023-05-25T01:25:13;101064.34;;;28.94;31.55
9415;BME280;4746;35.664;139.738;2023-05-25T01:27:50;101045.66;;;28.82;32.22
9415;BME280;4746;35.664;139.738;2023-05-25T01:30:20;101061.03;;;28.74;32.53
9415;BME280;4746;35.664;139.738;2023-05-25T01:32:53;101076.72;;;28.77;32.19
9415;BME280;4746;35.664;139.738;2023-05-25T01:35:23;101076.59;;;28.80;32.15
9415;BME280;4746;35.664;139.738;2023-05-25T01:37:52;101087.50;;;28.89;32.44
9415;BME280;4746;35.664;139.738;2023-05-25T01:40:20;101078.22;;;28.97;32.56
9415;BME280;4746;35.664;139.738;2023-05-25T01:42:47;101073.53;;;29.02;32.04
9415;BME280;4746;35.664;139.738;2023-05-25T01:45:16;101083.78;;;29.08;31.83
9415;BME280;4746;35.664;139.738;2023-05-25T01:48:09;101080.53;;;29.19;31.57
9415;BME280;4746;35.664;139.738;2023-05-25T01:53:36;101081.63;;;29.30;31.46
9415;BME280;4746;35.664;139.738;2023-05-25T01:56:09;101100.00;;;29.33;32.15
9415;BME280;4746;35.664;139.738;2023-05-25T01:58:45;101099.66;;;29.39;32.07
9415;BME280;4746;35.664;139.738;2023-05-25T02:01:16;101089.94;;;29.40;31.88
9415;BME280;4746;35.664;139.738;2023-05-25T02:03:46;101080.56;;;29.34;32.14
9415;BME280;4746;35.664;139.738;2023-05-25T02:06:16;101087.09;;;29.27;31.99
9415;BME280;4746;35.664;139.738;2023-05-25T02:08:43;101079.34;;;29.24;32.53
9415;BME280;4746;35.664;139.738;2023-05-25T02:11:13;101074.91;;;29.25;32.47
9415;BME280;4746;35.664;139.738;2023-05-25T02:13:41;101070.63;;;29.22;32.26
9415;BME280;4746;35.664;139.738;2023-05-25T02:16:09;101079.78;;;29.32;32.90
9415;BME280;4746;35.664;139.738;2023-05-25T02:18:36;101079.28;;;29.41;32.61
9415;BME280;4746;35.664;139.738;2023-05-25T02:21:04;101070.84;;;29.50;32.21
9415;BME280;4746;35.664;139.738;2023-05-25T02:23:31;101065.03;;;29.59;32.53
9415;BME280;4746;35.664;139.738;2023-05-25T02:25:59;101071.84;;;29.63;32.13
9415;BME280;4746;35.664;139.738;2023-05-25T02:28:26;101070.16;;;29.62;32.39
9415;BME280;4746;35.664;139.738;2023-05-25T02:30:54;101076.13;;;29.65;32.75
9415;BME280;4746;35.664;139.738;2023-05-25T02:33:25;101081.06;;;29.71;33.00
9415;BME280;4746;35.664;139.738;2023-05-25T02:35:54;101083.03;;;29.68;32.80
9415;BME280;4746;35.664;139.738;2023-05-25T02:38:22;101079.16;;;29.58;32.97
9415;BME280;4746;35.664;139.738;2023-05-25T02:40:51;101077.81;;;29.51;32.44
9415;BME280;4746;35.664;139.738;2023-05-25T02:43:19;101073.75;;;29.46;33.27
9415;BME280;4746;35.664;139.738;2023-05-25T02:45:46;101076.53;;;29.43;33.09
9415;BME280;4746;35.664;139.738;2023-05-25T02:48:14;101069.84;;;29.37;33.03
9415;BME280;4746;35.664;139.738;2023-05-25T02:50:42;101070.84;;;29.35;33.37
9415;BME280;4746;35.664;139.738;2023-05-25T02:53:09;101072.78;;;29.31;33.41
9415;BME280;4746;35.664;139.738;2023-05-25T02:55:37;101067.28;;;29.36;33.15
9415;BME280;4746;35.664;139.738;2023-05-25T02:58:06;101067.63;;;29.45;33.09
9415;BME280;4746;35.664;139.738;2023-05-25T03:00:35;101065.38;;;29.53;32.92
9415;BME280;4746;35.664;139.738;2023-05-25T03:03:03;101059.94;;;29.56;33.40
9415;BME280;4746;35.664;139.738;2023-05-25T03:05:31;101052.75;;;29.58;33.07
9415;BME280;4746;35.664;139.738;2023-05-25T03:08:01;101047.69;;;29.69;33.06
9415;BME280;4746;35.664;139.738;2023-05-25T03:10:28;101047.59;;;29.86;32.91
9415;BME280;4746;35.664;139.738;2023-05-25T03:12:56;101032.72;;;29.99;33.26
9415;BME280;4746;35.664;139.738;2023-05-25T03:15:23;101039.00;;;30.12;32.93
9415;BME280;4746;35.664;139.738;2023-05-25T03:17:52;101037.59;;;30.20;32.17
9415;BME280;4746;35.664;139.738;2023-05-25T03:20:22;101033.22;;;30.05;32.95
9415;BME280;4746;35.664;139.738;2023-05-25T03:22:55;101030.84;;;30.01;33.13
9415;BME280;4746;35.664;139.738;2023-05-25T03:25:22;101033.03;;;30.08;33.05
9415;BME280;4746;35.664;139.738;2023-05-25T03:27:54;101033.16;;;30.21;32.79
9415;BME280;4746;35.664;139.738;2023-05-25T03:30:25;101021.63;;;30.22;32.68
9415;BME280;4746;35.664;139.738;2023-05-25T03:32:53;101026.16;;;30.33;32.34
9415;BME280;4746;35.664;139.738;2023-05-25T03:35:21;101028.75;;;30.49;32.21
9415;BME280;4746;35.664;139.738;2023-05-25T03:37:49;101025.00;;;30.53;32.50
9415;BME280;4746;35.664;139.738;2023-05-25T03:40:16;101015.16;;;30.55;32.56
9415;BME280;4746;35.664;139.738;2023-05-25T03:42:44;101023.38;;;30.64;32.22
9415;BME280;4746;35.664;139.738;2023-05-25T03:45:11;101015.16;;;30.69;32.61
9415;BME280;4746;35.664;139.738;2023-05-25T03:47:39;101017.69;;;30.84;32.44
9415;BME280;4746;35.664;139.738;2023-05-25T03:50:07;101017.84;;;30.95;32.06
9415;BME280;4746;35.664;139.738;2023-05-25T03:52:35;101021.34;;;30.96;32.22
9415;BME280;4746;35.664;139.738;2023-05-25T03:55:04;101023.34;;;31.06;32.06
9415;BME280;4746;35.664;139.738;2023-05-25T03:57:32;101027.84;;;31.18;32.09
9415;BME280;4746;35.664;139.738;2023-05-25T04:00:02;101022.94;;;31.26;32.15
9415;BME280;4746;35.664;139.738;2023-05-25T04:02:31;101019.56;;;31.36;31.69
9415;BME280;4746;35.664;139.738;2023-05-25T04:04:58;101022.84;;;31.54;31.64
9415;BME280;4746;35.664;139.738;2023-05-25T04:07:26;101015.22;;;31.62;31.15
9415;BME280;4746;35.664;139.738;2023-05-25T04:09:56;101009.09;;;31.73;31.03
9415;BME280;4746;35.664;139.738;2023-05-25T04:12:27;101006.69;;;31.83;31.05
9415;BME280;4746;35.664;139.738;2023-05-25T04:14:54;101011.91;;;31.97;30.81
9415;BME280;4746;35.664;139.738;2023-05-25T04:17:22;101008.34;;;32.10;30.64
9415;BME280;4746;35.664;139.738;2023-05-25T04:19:51;100996.88;;;32.35;30.79
9415;BME280;4746;35.664;139.738;2023-05-25T04:22:19;100996.06;;;32.59;30.37
9415;BME280;4746;35.664;139.738;2023-05-25T04:24:47;100998.44;;;32.87;29.93
9415;BME280;4746;35.664;139.738;2023-05-25T04:27:15;101003.34;;;33.04;29.71
9415;BME280;4746;35.664;139.738;2023-05-25T04:29:43;100998.16;;;33.15;29.43
9415;BME280;4746;35.664;139.738;2023-05-25T04:32:11;100993.91;;;33.35;29.29
9415;BME280;4746;35.664;139.738;2023-05-25T04:34:44;100993.09;;;33.46;29.42
9415;BME280;4746;35.664;139.738;2023-05-25T04:37:12;101003.94;;;33.55;29.07
9415;BME280;4746;35.664;139.738;2023-05-25T04:39:40;101001.06;;;33.58;29.00
9415;BME280;4746;35.664;139.738;2023-05-25T04:42:08;101001.78;;;33.60;28.44
9415;BME280;4746;35.664;139.738;2023-05-25T04:44:35;101006.59;;;33.55;28.59
9415;BME280;4746;35.664;139.738;2023-05-25T04:47:06;101018.25;;;33.65;28.51
9415;BME280;4746;35.664;139.738;2023-05-25T04:49:34;101006.44;;;33.80;28.12
9415;BME280;4746;35.664;139.738;2023-05-25T04:52:01;101008.44;;;34.00;28.14
9415;BME280;4746;35.664;139.738;2023-05-25T04:54:29;101007.28;;;34.04;27.55
9415;BME280;4746;35.664;139.738;2023-05-25T04:56:56;101007.75;;;34.09;28.13
9415;BME280;4746;35.664;139.738;2023-05-25T04:59:24;101005.13;;;34.20;27.74
9415;BME280;4746;35.664;139.738;2023-05-25T05:01:53;101000.53;;;34.33;27.25
9415;BME280;4746;35.664;139.738;2023-05-25T05:04:20;101006.59;;;34.35;27.02
9415;BME280;4746;35.664;139.738;2023-05-25T05:06:48;100998.34;;;34.38;27.65
9415;BME280;4746;35.664;139.738;2023-05-25T05:09:16;100997.53;;;34.48;27.28
9415;BME280;4746;35.664;139.738;2023-05-25T05:11:43;101006.16;;;34.63;27.48
9415;BME280;4746;35.664;139.738;2023-05-25T05:14:11;101006.16;;;34.63;27.10
9415;BME280;4746;35.664;139.738;2023-05-25T05:16:39;101004.09;;;34.66;26.92
9415;BME280;4746;35.664;139.738;2023-05-25T05:19:06;101008.31;;;34.68;27.13
9415;BME280;4746;35.664;139.738;2023-05-25T05:21:34;101005.88;;;34.44;27.44
9415;BME280;4746;35.664;139.738;2023-05-25T05:24:02;101009.00;;;34.38;27.72
9415;BME280;4746;35.664;139.738;2023-05-25T05:26:29;101002.97;;;34.47;27.26
9415;BME280;4746;35.664;139.738;2023-05-25T05:28:57;101001.50;;;34.43;27.80
9415;BME280;4746;35.664;139.738;2023-05-25T05:31:24;101005.19;;;34.63;27.53
9415;BME280;4746;35.664;139.738;2023-05-25T05:33:54;101003.59;;;34.72;27.28
9415;BME280;4746;35.664;139.738;2023-05-25T05:36:21;100999.47;;;34.79;27.25
9415;BME280;4746;35.664;139.738;2023-05-25T05:38:50;101001.25;;;34.89;26.81
9415;BME280;4746;35.664;139.738;2023-05-25T05:41:18;100991.63;;;34.99;26.98
9415;BME280;4746;35.664;139.738;2023-05-25T05:43:46;100991.09;;;34.94;27.02
9415;BME280;4746;35.664;139.738;2023-05-25T05:46:13;100992.09;;;35.04;26.27
9415;BME280;4746;35.664;139.738;2023-05-25T05:48:41;100986.69;;;35.57;26.32
9415;BME280;4746;35.664;139.738;2023-05-25T05:51:08;100980.22;;;36.11;25.37
9415;BME280;4746;35.664;139.738;2023-05-25T05:53:36;100971.22;;;36.63;25.10
9415;BME280;4746;35.664;139.738;2023-05-25T05:56:04;100975.44;;;37.14;24.67
9415;BME280;4746;35.664;139.738;2023-05-25T05:58:32;100972.94;;;37.59;24.38
9415;BME280;4746;35.664;139.738;2023-05-25T06:01:00;100964.59;;;38.00;23.21
9415;BME280;4746;35.664;139.738;2023-05-25T06:03:29;100969.56;;;37.95;23.36
9415;BME280;4746;35.664;139.738;2023-05-25T06:05:56;100974.50;;;37.71;23.57
9415;BME280;4746;35.664;139.738;2023-05-25T06:08:24;100964.94;;;37.78;23.88
9415;BME280;4746;35.664;139.738;2023-05-25T06:10:52;100961.84;;;37.73;23.69
9415;BME280;4746;35.664;139.738;2023-05-25T06:13:19;100977.06;;;37.45;23.69
9415;BME280;4746;35.664;139.738;2023-05-25T06:15:49;100974.44;;;37.05;24.09
9415;BME280;4746;35.664;139.738;2023-05-25T06:18:19;100976.25;;;36.86;24.38
9415;BME280;4746;35.664;139.738;2023-05-25T06:20:46;100968.13;;;36.67;24.59
9415;BME280;4746;35.664;139.738;2023-05-25T06:23:14;100968.06;;;36.48;25.07
9415;BME280;4746;35.664;139.738;2023-05-25T06:25:44;100967.69;;;36.32;25.25
9415;BME280;4746;35.664;139.738;2023-05-25T06:28:12;100969.53;;;36.11;25.67
9415;BME280;4746;35.664;139.738;2023-05-25T06:30:40;100980.84;;;35.84;25.87
9415;BME280;4746;35.664;139.738;2023-05-25T06:33:09;100981.44;;;35.87;26.17
9415;BME280;4746;35.664;139.738;2023-05-25T06:35:37;100970.31;;;35.62;26.24
9415;BME280;4746;35.664;139.738;2023-05-25T06:38:04;100975.63;;;35.31;26.48
9415;BME280;4746;35.664;139.738;2023-05-25T06:40:32;100971.31;;;35.19;26.53
9415;BME280;4746;35.664;139.738;2023-05-25T06:43:00;100973.88;;;35.09;26.13
9415;BME280;4746;35.664;139.738;2023-05-25T06:45:27;100976.47;;;34.78;26.99
9415;BME280;4746;35.664;139.738;2023-05-25T06:47:55;100976.56;;;34.44;26.76
9415;BME280;4746;35.664;139.738;2023-05-25T06:50:23;100972.47;;;34.29;27.25
9415;BME280;4746;35.664;139.738;2023-05-25T06:52:50;100981.84;;;34.00;27.57
9415;BME280;4746;35.664;139.738;2023-05-25T06:55:20;100979.53;;;33.61;27.94
9415;BME280;4746;35.664;139.738;2023-05-25T06:57:48;100973.56;;;33.23;28.38
9415;BME280;4746;35.664;139.738;2023-05-25T07:00:20;100978.09;;;32.98;28.81
9415;BME280;4746;35.664;139.738;2023-05-25T07:02:48;100975.66;;;32.59;29.47
9415;BME280;4746;35.664;139.738;2023-05-25T07:05:22;100974.19;;;32.18;30.18
9415;BME280;4746;35.664;139.738;2023-05-25T07:07:51;100992.47;;;31.84;30.45
9415;BME280;4746;35.664;139.738;2023-05-25T07:10:18;100980.63;;;31.51;31.09
9415;BME280;4746;35.664;139.738;2023-05-25T07:12:46;100985.84;;;31.26;31.52
9415;BME280;4746;35.664;139.738;2023-05-25T07:15:13;100982.19;;;31.14;32.15
9415;BME280;4746;35.664;139.738;2023-05-25T07:17:42;100988.91;;;31.06;31.83
9415;BME280;4746;35.664;139.738;2023-05-25T07:20:10;100984.19;;;30.97;31.96
9415;BME280;4746;35.664;139.738;2023-05-25T07:22:39;100990.44;;;30.82;32.30
9415;BME280;4746;35.664;139.738;2023-05-25T07:25:07;100988.84;;;30.66;31.81
9415;BME280;4746;35.664;139.738;2023-05-25T07:27:35;101001.91;;;30.55;32.49
9415;BME280;4746;35.664;139.738;2023-05-25T07:30:03;100981.56;;;30.41;32.04
9415;BME280;4746;35.664;139.738;2023-05-25T07:32:32;100979.41;;;30.34;32.75
9415;BME280;4746;35.664;139.738;2023-05-25T07:34:59;100990.19;;;30.17;32.74
9415;BME280;4746;35.664;139.738;2023-05-25T07:37:27;100988.75;;;29.98;33.33
9415;BME280;4746;35.664;139.738;2023-05-25T07:39:54;100975.81;;;29.78;33.38
9415;BME280;4746;35.664;139.738;2023-05-25T07:42:22;100968.88;;;29.61;33.76
9415;BME280;4746;35.664;139.738;2023-05-25T07:44:49;100970.63;;;29.47;33.81
9415;BME280;4746;35.664;139.738;2023-05-25T07:47:17;100966.03;;;29.35;33.88
9415;BME280;4746;35.664;139.738;2023-05-25T07:49:44;100970.13;;;29.25;34.13
9415;BME280;4746;35.664;139.738;2023-05-25T07:52:12;100975.19;;;29.14;34.32
9415;BME280;4746;35.664;139.738;2023-05-25T07:54:39;100974.59;;;29.09;34.39
9415;BME280;4746;35.664;139.738;2023-05-25T07:57:07;100968.53;;;29.07;34.42
9415;BME280;4746;35.664;139.738;2023-05-25T07:59:34;100979.19;;;29.06;34.70
9415;BME280;4746;35.664;139.738;2023-05-25T08:02:02;100981.25;;;29.01;34.57
9415;BME280;4746;35.664;139.738;2023-05-25T08:04:33;100995.03;;;29.06;34.34
9415;BME280;4746;35.664;139.738;2023-05-25T08:07:01;100984.13;;;28.96;35.27
9415;BME280;4746;35.664;139.738;2023-05-25T08:09:29;100998.09;;;28.83;34.95
9415;BME280;4746;35.664;139.738;2023-05-25T08:11:56;101005.50;;;28.60;35.13
9415;BME280;4746;35.664;139.738;2023-05-25T08:14:24;101017.69;;;28.30;35.99
9415;BME280;4746;35.664;139.738;2023-05-25T08:16:52;101020.63;;;28.07;36.23
9415;BME280;4746;35.664;139.738;2023-05-25T08:19:19;101025.00;;;27.91;36.69
9415;BME280;4746;35.664;139.738;2023-05-25T08:21:47;101008.88;;;27.80;36.84
9415;BME280;4746;35.664;139.738;2023-05-25T08:24:14;101019.88;;;27.71;37.22
9415;BME280;4746;35.664;139.738;2023-05-25T08:26:42;101015.53;;;27.70;37.66
9415;BME280;4746;35.664;139.738;2023-05-25T08:29:10;101021.19;;;27.63;37.33
9415;BME280;4746;35.664;139.738;2023-05-25T08:31:37;101021.22;;;27.44;37.80
9415;BME280;4746;35.664;139.738;2023-05-25T08:34:05;101009.84;;;27.26;38.02
9415;BME280;4746;35.664;139.738;2023-05-25T08:36:32;101028.59;;;27.01;38.61
9415;BME280;4746;35.664;139.738;2023-05-25T08:39:02;101028.44;;;26.86;38.82
9415;BME280;4746;35.664;139.738;2023-05-25T08:41:31;101039.50;;;26.74;39.38
9415;BME280;4746;35.664;139.738;2023-05-25T08:44:00;101020.88;;;26.60;39.60
9415;BME280;4746;35.664;139.738;2023-05-25T08:46:33;101042.44;;;26.48;39.75
9415;BME280;4746;35.664;139.738;2023-05-25T08:49:14;101053.19;;;26.44;39.80
9415;BME280;4746;35.664;139.738;2023-05-25T08:51:53;101047.00;;;26.25;39.97
9415;BME280;4746;35.664;139.738;2023-05-25T08:54:29;101050.88;;;26.16;40.27
9415;BME280;4746;35.664;139.738;2023-05-25T09:00:20;101070.31;;;25.93;40.39
9415;BME280;4746;35.664;139.738;2023-05-25T09:03:17;101055.66;;;25.87;40.52
9415;BME280;4746;35.664;139.738;2023-05-25T09:05:46;101062.78;;;25.84;40.79
9415;BME280;4746;35.664;139.738;2023-05-25T09:08:14;101077.72;;;25.83;40.89
9415;BME280;4746;35.664;139.738;2023-05-25T09:10:42;101068.91;;;25.84;41.28
9415;BME280;4746;35.664;139.738;2023-05-25T09:13:10;101078.63;;;25.82;41.29
9415;BME280;4746;35.664;139.738;2023-05-25T09:15:37;101084.84;;;25.80;41.22
9415;BME280;4746;35.664;139.738;2023-05-25T09:18:07;101091.91;;;25.79;41.83
9415;BME280;4746;35.664;139.738;2023-05-25T09:20:35;101088.53;;;25.76;41.56
9415;BME280;4746;35.664;139.738;2023-05-25T09:23:05;101102.59;;;25.75;41.16
9415;BME280;4746;35.664;139.738;2023-05-25T09:25:33;101102.78;;;25.69;41.46
9415;BME280;4746;35.664;139.738;2023-05-25T09:28:01;101086.38;;;25.64;41.66
9415;BME280;4746;35.664;139.738;2023-05-25T09:30:29;101095.16;;;25.63;41.48
9415;BME280;4746;35.664;139.738;2023-05-25T09:33:15;101138.00;;;25.63;41.20
9415;BME280;4746;35.664;139.738;2023-05-25T09:35:47;101109.84;;;25.45;41.96
9415;BME280;4746;35.664;139.738;2023-05-25T09:38:18;101115.34;;;25.39;41.83
9415;BME280;4746;35.664;139.738;2023-05-25T09:40:46;101115.88;;;25.26;42.74
9415;BME280;4746;35.664;139.738;2023-05-25T09:43:13;101126.63;;;25.20;42.68
9415;BME280;4746;35.664;139.738;2023-05-25T09:45:41;101144.31;;;25.15;42.70
9415;BME280;4746;35.664;139.738;2023-05-25T09:48:09;101126.28;;;25.05;42.81
9415;BME280;4746;35.664;139.738;2023-05-25T09:50:37;101139.84;;;24.94;42.96
9415;BME280;4746;35.664;139.738;2023-05-25T09:53:07;101150.63;;;24.85;43.08
9415;BME280;4746;35.664;139.738;2023-05-25T09:55:37;101153.47;;;24.79;43.14
9415;BME280;4746;35.664;139.738;2023-05-25T09:58:07;101140.81;;;24.67;43.30
9415;BME280;4746;35.664;139.738;2023-05-25T10:00:35;101127.69;;;24.67;43.15
9415;BME280;4746;35.664;139.738;2023-05-25T10:03:03;101154.81;;;24.66;43.03
9415;BME280;4746;35.664;139.738;2023-05-25T10:05:33;101149.56;;;24.66;43.71
9415;BME280;4746;35.664;139.738;2023-05-25T10:08:02;101139.09;;;24.66;44.13
9415;BME280;4746;35.664;139.738;2023-05-25T10:10:31;101152.38;;;24.62;44.28
9415;BME280;4746;35.664;139.738;2023-05-25T10:13:00;101163.03;;;24.57;44.23
9415;BME280;4746;35.664;139.738;2023-05-25T10:15:28;101153.56;;;24.53;44.63
9415;BME280;4746;35.664;139.738;2023-05-25T10:18:00;101156.28;;;24.51;44.44
9415;BME280;4746;35.664;139.738;2023-05-25T10:20:30;101158.19;;;24.46;44.31
9415;BME280;4746;35.664;139.738;2023-05-25T10:23:10;101161.78;;;24.43;44.29
9415;BME280;4746;35.664;139.738;2023-05-25T10:25:46;101173.28;;;24.38;44.80
9415;BME280;4746;35.664;139.738;2023-05-25T10:30:56;101171.03;;;24.27;44.95
9415;BME280;4746;35.664;139.738;2023-05-25T10:33:24;101166.00;;;24.21;45.09
9415;BME280;4746;35.664;139.738;2023-05-25T10:35:54;101165.13;;;24.21;45.36
9415;BME280;4746;35.664;139.738;2023-05-25T10:38:24;101169.63;;;24.17;45.42
9415;BME280;4746;35.664;139.738;2023-05-25T10:40:58;101186.22;;;24.18;45.14
9415;BME280;4746;35.664;139.738;2023-05-25T10:43:26;101187.16;;;24.15;45.59
9415;BME280;4746;35.664;139.738;2023-05-25T10:45:55;101182.78;;;24.16;45.28
9415;BME280;4746;35.664;139.738;2023-05-25T10:48:33;101197.66;;;24.14;45.80
9415;BME280;4746;35.664;139.738;2023-05-25T10:51:01;101177.66;;;24.11;45.37
9415;BME280;4746;35.664;139.738;2023-05-25T10:53:28;101201.81;;;24.21;45.78
9415;BME280;4746;35.664;139.738;2023-05-25T10:56:04;101210.69;;;24.17;45.83
9415;BME280;4746;35.664;139.738;2023-05-25T10:58:33;101194.53;;;24.04;46.00
9415;BME280;4746;35.664;139.738;2023-05-25T11:01:11;101194.09;;;24.16;45.77
9415;BME280;4746;35.664;139.738;2023-05-25T11:09:29;101219.34;;;24.19;45.77
9415;BME280;4746;35.664;139.738;2023-05-25T11:14:35;101224.69;;;24.16;46.17
9415;BME280;4746;35.664;139.738;2023-05-25T11:19:53;101221.31;;;24.12;46.65
9415;BME280;4746;35.664;139.738;2023-05-25T11:22:33;101224.81;;;24.11;47.05
9415;BME280;4746;35.664;139.738;2023-05-25T11:25:36;101228.00;;;24.21;46.09
9415;BME280;4746;35.664;139.738;2023-05-25T11:28:08;101222.88;;;24.18;46.02
9415;BME280;4746;35.664;139.738;2023-05-25T11:30:41;101224.47;;;24.22;45.84
9415;BME280;4746;35.664;139.738;2023-05-25T11:33:09;101221.03;;;24.20;46.37
9415;BME280;4746;35.664;139.738;2023-05-25T11:35:37;101227.09;;;24.22;45.31
9415;BME280;4746;35.664;139.738;2023-05-25T11:38:07;101235.91;;;24.19;45.54
9415;BME280;4746;35.664;139.738;2023-05-25T11:40:35;101231.69;;;24.15;45.21
9415;BME280;4746;35.664;139.738;2023-05-25T11:43:03;101226.47;;;24.14;45.23
9415;BME280;4746;35.664;139.738;2023-05-25T11:45:32;101224.06;;;24.08;45.55
9415;BME280;4746;35.664;139.738;2023-05-25T11:48:00;101231.91;;;24.08;45.04
9415;BME280;4746;35.664;139.738;2023-05-25T11:50:30;101234.59;;;24.06;45.13
9415;BME280;4746;35.664;139.738;2023-05-25T11:52:57;101229.34;;;24.06;45.15
9415;BME280;4746;35.664;139.738;2023-05-25T11:55:25;101225.00;;;24.07;44.44
9415;BME280;4746;35.664;139.738;2023-05-25T11:57:57;101226.69;;;24.08;44.48
9415;BME280;4746;35.664;139.738;2023-05-25T12:00:26;101243.41;;;24.04;44.61
9415;BME280;4746;35.664;139.738;2023-05-25T12:02:54;101235.69;;;23.99;45.20
9415;BME280;4746;35.664;139.738;2023-05-25T12:05:23;101244.47;;;23.98;45.28
9415;BME280;4746;35.664;139.738;2023-05-25T12:07:51;101241.94;;;23.95;44.94
9415;BME280;4746;35.664;139.738;2023-05-25T12:10:19;101244.59;;;23.94;45.38
9415;BME280;4746;35.664;139.738;2023-05-25T12:12:49;101248.13;;;23.93;45.46
9415;BME280;4746;35.664;139.738;2023-05-25T12:15:22;101261.44;;;23.85;45.37
9415;BME280;4746;35.664;139.738;2023-05-25T12:17:51;101242.59;;;23.75;45.27
9415;BME280;4746;35.664;139.738;2023-05-25T12:20:20;101249.66;;;23.71;45.09
9415;BME280;4746;35.664;139.738;2023-05-25T12:22:50;101242.75;;;23.69;45.31
9415;BME280;4746;35.664;139.738;2023-05-25T12:25:21;101243.59;;;23.69;45.54
9415;BME280;4746;35.664;139.738;2023-05-25T12:28:13;101254.00;;;23.72;45.02
9415;BME280;4746;35.664;139.738;2023-05-25T12:30:40;101249.81;;;23.65;45.66
9415;BME280;4746;35.664;139.738;2023-05-25T12:33:13;101252.44;;;23.65;45.66
9415;BME280;4746;35.664;139.738;2023-05-25T12:35:46;101248.00;;;23.67;45.62
9415;BME280;4746;35.664;139.738;2023-05-25T12:38:19;101248.00;;;23.67;45.63
9415;BME280;4746;35.664;139.738;2023-05-25T12:41:05;101261.84;;;23.71;45.60
9415;BME280;4746;35.664;139.738;2023-05-25T12:43:38;101235.78;;;23.68;45.33
9415;BME280;4746;35.664;139.738;2023-05-25T12:46:08;101255.97;;;23.64;45.84
9415;BME280;4746;35.664;139.738;2023-05-25T12:48:36;101270.88;;;23.61;45.67
9415;BME280;4746;35.664;139.738;2023-05-25T12:51:04;101250.91;;;23.58;45.92
9415;BME280;4746;35.664;139.738;2023-05-25T12:53:46;101258.66;;;23.61;46.11
9415;BME280;4746;35.664;139.738;2023-05-25T12:56:13;101262.31;;;23.56;46.06
9415;BME280;4746;35.664;139.738;2023-05-25T12:58:41;101258.94;;;23.52;46.08
9415;BME280;4746;35.664;139.738;2023-05-25T13:01:09;101265.06;;;23.51;46.69
9415;BME280;4746;35.664;139.738;2023-05-25T13:03:37;101255.50;;;23.50;46.44
9415;BME280;4746;35.664;139.738;2023-05-25T13:06:04;101263.34;;;23.50;46.48
9415;BME280;4746;35.664;139.738;2023-05-25T13:08:32;101253.78;;;23.49;46.40
9415;BME280;4746;35.664;139.738;2023-05-25T13:11:00;101260.81;;;23.47;46.62
9415;BME280;4746;35.664;139.738;2023-05-25T13:13:29;101249.53;;;23.45;46.60
9415;BME280;4746;35.664;139.738;2023-05-25T13:15:57;101253.94;;;23.45;46.63
9415;BME280;4746;35.664;139.738;2023-05-25T13:18:24;101257.50;;;23.42;46.50
9415;BME280;4746;35.664;139.738;2023-05-25T13:20:52;101260.09;;;23.42;47.02
9415;BME280;4746;35.664;139.738;2023-05-25T13:23:19;101266.22;;;23.41;46.94